createdAt,value
2022-10-14T00:03:18.657Z,53.53
2022-10-14T00:13:20.142Z,53.71
2022-10-14T00:23:25.241Z,54.64
2022-10-14T00:33:29.886Z,53.88
2022-10-14T00:43:57.879Z,54.23
2022-10-14T00:54:02.061Z,54.53
2022-10-14T01:04:03.831Z,54.68
2022-10-14T01:14:31.540Z,54.68
2022-10-14T01:24:42.100Z,54.97
2022-10-14T01:34:48.726Z,54.90
2022-10-14T01:45:06.090Z,55.13
2022-10-14T01:55:09.838Z,55.06
2022-10-14T02:05:36.269Z,55.35
2022-10-14T02:15:43.873Z,54.91
2022-10-14T02:25:46.690Z,55.13
2022-10-14T02:35:48.117Z,55.10
2022-10-14T02:45:49.493Z,55.32
2022-10-14T02:55:50.867Z,55.30
2022-10-14T03:05:52.252Z,55.55
2022-10-14T03:15:53.620Z,55.41
2022-10-14T03:25:54.987Z,55.42
2022-10-14T03:35:56.402Z,54.91
2022-10-14T03:45:57.781Z,54.85
2022-10-14T03:55:59.290Z,54.78
2022-10-14T04:06:00.692Z,54.25
2022-10-14T04:16:06.403Z,54.24
2022-10-14T04:26:08.075Z,54.84
2022-10-14T04:36:09.562Z,54.44
2022-10-14T04:46:13.511Z,54.18
2022-10-14T04:56:15.051Z,54.11
2022-10-14T05:06:16.578Z,54.58
2022-10-14T05:16:18.250Z,54.06
2022-10-14T05:26:19.811Z,53.86
2022-10-14T05:36:21.173Z,53.90
2022-10-14T05:46:22.592Z,54.17
2022-10-14T05:56:24.091Z,53.94
2022-10-14T06:06:28.961Z,53.78
2022-10-14T06:16:30.861Z,53.87
2022-10-14T06:26:32.606Z,53.66
2022-10-14T06:36:34.465Z,53.78
2022-10-14T06:46:35.841Z,53.97
2022-10-14T06:56:37.310Z,54.28
2022-10-14T07:06:38.703Z,54.08
2022-10-14T07:16:40.092Z,54.63
2022-10-14T07:26:41.513Z,54.65
2022-10-14T07:36:42.893Z,54.48
2022-10-14T07:46:44.831Z,54.39
2022-10-14T07:56:46.652Z,55.08
2022-10-14T08:06:48.659Z,54.92
2022-10-14T08:16:50.054Z,54.69
2022-10-14T08:26:53.247Z,55.69
2022-10-14T08:36:54.647Z,55.56
2022-10-14T08:46:59.792Z,55.04
2022-10-14T08:57:01.200Z,55.60
2022-10-14T09:07:02.729Z,55.56
2022-10-14T09:27:24.267Z,55.44
2022-10-14T09:37:32.714Z,55.58
2022-10-14T09:47:46.178Z,55.45
2022-10-14T09:57:47.614Z,55.58
2022-10-14T10:08:01.435Z,55.01
2022-10-14T10:18:04.102Z,55.01
2022-10-14T10:28:05.468Z,54.74
2022-10-14T10:38:11.243Z,55.09
2022-10-14T10:48:18.884Z,55.33
2022-10-14T10:58:44.205Z,55.85
2022-10-14T11:09:11.900Z,55.18
2022-10-14T11:19:15.723Z,55.50
2022-10-14T11:29:38.563Z,54.94
2022-10-14T11:39:49.806Z,56.42
2022-10-14T11:49:59.523Z,55.75
2022-10-14T12:00:14.006Z,56.35
2022-10-14T12:10:27.681Z,55.96
2022-10-14T12:20:47.556Z,56.86
2022-10-14T12:30:49.030Z,56.18
2022-10-14T12:40:50.521Z,56.63
2022-10-14T12:51:09.677Z,56.45
2022-10-14T13:01:19.228Z,57.12
2022-10-14T13:11:27.816Z,56.74
2022-10-14T13:21:36.323Z,56.15
2022-10-14T13:32:06.921Z,56.44
2022-10-14T13:42:15.395Z,57.01
2022-10-14T13:52:20.780Z,56.90
2022-10-14T14:02:25.832Z,57.29
2022-10-14T14:12:27.286Z,57.63
2022-10-14T14:22:30.182Z,57.58
2022-10-14T14:32:31.952Z,57.49
2022-10-14T14:42:36.041Z,57.92
2022-10-14T14:52:41.592Z,57.82
2022-10-14T15:02:42.968Z,58.00
2022-10-14T15:12:52.618Z,57.34
2022-10-14T15:22:53.997Z,57.26
2022-10-14T15:32:57.290Z,57.81
2022-10-14T15:42:58.748Z,56.76
2022-10-14T15:53:00.173Z,56.27
2022-10-14T16:03:03.627Z,56.76
2022-10-14T16:13:05.131Z,56.33
2022-10-14T16:23:06.794Z,57.15
2022-10-14T16:33:09.322Z,57.22
2022-10-14T16:43:10.723Z,56.44
2022-10-14T16:53:30.737Z,56.09
2022-10-14T17:03:32.125Z,56.44
2022-10-14T17:13:33.561Z,56.45
2022-10-14T17:23:35.617Z,56.00
2022-10-14T17:33:38.135Z,55.95
2022-10-14T17:43:39.653Z,55.76
2022-10-14T17:53:41.177Z,55.65
2022-10-14T18:03:43.540Z,55.45
2022-10-14T18:13:51.786Z,55.40
2022-10-14T18:23:53.464Z,55.66
2022-10-14T18:33:55.341Z,55.64
2022-10-14T18:43:57.980Z,55.69
2022-10-14T18:54:00.277Z,55.29
2022-10-14T19:04:02.196Z,55.56
2022-10-14T19:14:03.888Z,55.23
2022-10-14T19:24:06.977Z,55.03
2022-10-14T19:34:09.764Z,55.37
2022-10-14T19:44:11.676Z,54.83
2022-10-14T19:54:13.174Z,55.33
2022-10-14T20:04:14.594Z,55.59
2022-10-14T20:14:18.341Z,55.46
2022-10-14T20:24:19.760Z,55.38
2022-10-14T20:34:21.306Z,55.41
2022-10-14T20:44:23.950Z,55.25
2022-10-14T20:54:25.648Z,55.33
2022-10-14T21:04:27.054Z,55.20
2022-10-14T21:14:28.451Z,55.28
2022-10-14T21:24:30.043Z,55.33
2022-10-14T21:34:31.534Z,55.09
2022-10-14T21:44:33.025Z,55.73
2022-10-14T21:54:34.984Z,55.80
2022-10-14T22:04:38.292Z,55.56
2022-10-14T22:15:14.417Z,55.83
2022-10-14T22:25:21.699Z,55.76
2022-10-14T22:35:26.072Z,55.75
2022-10-14T22:45:30.745Z,56.00
2022-10-14T22:55:33.387Z,55.76
2022-10-14T23:05:34.999Z,55.38
2022-10-14T23:15:37.747Z,55.45
2022-10-14T23:25:51.704Z,55.95
2022-10-14T23:35:56.165Z,55.89
2022-10-14T23:45:57.998Z,56.06
2022-10-14T23:56:01.988Z,55.69
